Terminal Aerodrome Forecast
Issued by NWS

Home | Current Version | Previous Version | Text Only | Print | Product List | Glossary On
Versions: 1 2 3 4 5 6 7 8 9 10 11 12 13 14 15 16 17 18 19 20 21 22 23 24 25 26 27 28 29 30 31 32 33 34
000
FTUS46 KOTX 272339
TAFSFF
TAF
KSFF 272339Z 2800/2824 20009G16KT P6SM FEW050
     FM280200 VRB04KT P6SM FEW120 BKN200
     FM280600 23009KT P6SM -SHRA SCT050 OVC080
     FM280800 23016G25KT P6SM -SHRA FEW025 SCT060 BKN080
     FM281230 23022G30KT P6SM FEW120
     FM282100 24018G28KT P6SM SCT050=

USA.gov is the U.S. government's official web portal to all federal, state and local government web resources and services.